FDX5067 KMEM-EBLG
Flight info
| Callsign | FDX5067 |
|---|---|
| Flight time | N/A |
| Altitude | 33000 |
| Route | GOETZ7 DIYAB DCT KM42O DCT KI57Q DCT KC69S DCT YXU DCT YXI DCT EPRES DCT OBRET DCT IGSAS DCT ANCER N795B JANJO/M083F350 DCT 56N050W 57N040W 58N030W 58N020W DCT SUNOT/N0476F350 DCT KESIX DCT APSOV DCT PEPOD DCT MAKUX DCT SOSIM L15 BIG Q70 VABIK/N0443F230 Q70 KOK |
| Aircraft | B77L/H-SDE1E2E3FGHIJ2J3J4J5M1RWXY/LB1D1 |
Departure
| Time | 2026-05-04 20:30 |
|---|---|
| Airport | Memphis International Airport (KMEM) |
Arrival
| Time | N/A |
|---|---|
| Airport | Liège Airport (EBLG) |
| Time | Latitude | Longitude | Altitude | Speed | Heading |
|---|---|---|---|---|---|
| 2026-05-04 20:11 | 35.06696 | -89.97566 | 260 ft | 0 kts | 360° |
| 2026-05-04 20:17 | 35.06686 | -89.97566 | 260 ft | 2 kts | 0° |
| 2026-05-04 20:18 | 35.06671 | -89.97566 | 260 ft | 2 kts | 360° |
| 2026-05-04 20:18 | 35.06656 | -89.97566 | 261 ft | 2 kts | 356° |
| 2026-05-04 20:18 | 35.06642 | -89.97559 | 261 ft | 2 kts | 318° |
| 2026-05-04 20:18 | 35.06633 | -89.97545 | 261 ft | 2 kts | 287° |
| 2026-05-04 20:19 | 35.06632 | -89.97527 | 261 ft | 2 kts | 265° |
| 2026-05-04 20:19 | 35.06633 | -89.97509 | 261 ft | 2 kts | 268° |
| 2026-05-04 20:19 | 35.06633 | -89.97491 | 261 ft | 2 kts | 270° |
| 2026-05-04 20:19 | 35.06633 | -89.97486 | 261 ft | 1 kts | 270° |
| 2026-05-04 20:20 | 35.06632 | -89.97501 | 261 ft | 4 kts | 260° |
| 2026-05-04 20:20 | 35.06616 | -89.97530 | 261 ft | 4 kts | 219° |
| 2026-05-04 20:20 | 35.06590 | -89.97542 | 262 ft | 2 kts | 185° |
| 2026-05-04 20:20 | 35.06584 | -89.97542 | 262 ft | 0 kts | 180° |
| 2026-05-04 20:23 | 35.06577 | -89.97542 | 262 ft | 2 kts | 180° |
| 2026-05-04 20:23 | 35.06552 | -89.97541 | 262 ft | 4 kts | 180° |
| 2026-05-04 20:23 | 35.06504 | -89.97541 | 263 ft | 9 kts | 180° |
| 2026-05-04 20:24 | 35.06421 | -89.97541 | 263 ft | 14 kts | 180° |
| 2026-05-04 20:24 | 35.06300 | -89.97541 | 264 ft | 18 kts | 179° |
| 2026-05-04 20:24 | 35.06175 | -89.97541 | 266 ft | 18 kts | 181° |
| 2026-05-04 20:24 | 35.06051 | -89.97540 | 269 ft | 10 kts | 179° |
| 2026-05-04 20:25 | 35.05983 | -89.97543 | 269 ft | 8 kts | 196° |
| 2026-05-04 20:25 | 35.05969 | -89.97599 | 268 ft | 8 kts | 275° |
| 2026-05-04 20:25 | 35.05986 | -89.97686 | 267 ft | 12 kts | 285° |
| 2026-05-04 20:25 | 35.06002 | -89.97803 | 267 ft | 15 kts | 275° |
| 2026-05-04 20:26 | 35.06010 | -89.97942 | 265 ft | 17 kts | 272° |
| 2026-05-04 20:26 | 35.06014 | -89.98104 | 263 ft | 19 kts | 272° |
| 2026-05-04 20:26 | 35.06018 | -89.98276 | 263 ft | 21 kts | 272° |
| 2026-05-04 20:26 | 35.06019 | -89.98459 | 261 ft | 21 kts | 253° |
| 2026-05-04 20:27 | 35.05929 | -89.98508 | 262 ft | 12 kts | 176° |
| 2026-05-04 20:27 | 35.05850 | -89.98503 | 263 ft | 11 kts | 179° |
| 2026-05-04 20:27 | 35.05767 | -89.98505 | 265 ft | 12 kts | 181° |
| 2026-05-04 20:27 | 35.05664 | -89.98506 | 267 ft | 16 kts | 179° |
| 2026-05-04 20:28 | 35.05544 | -89.98508 | 271 ft | 17 kts | 181° |
| 2026-05-04 20:28 | 35.05415 | -89.98509 | 274 ft | 20 kts | 180° |
| 2026-05-04 20:28 | 35.05263 | -89.98508 | 279 ft | 21 kts | 179° |
| 2026-05-04 20:28 | 35.05131 | -89.98516 | 283 ft | 17 kts | 190° |
| 2026-05-04 20:29 | 35.05031 | -89.98569 | 284 ft | 14 kts | 206° |
| 2026-05-04 20:29 | 35.04955 | -89.98619 | 286 ft | 10 kts | 217° |
| 2026-05-04 20:29 | 35.04936 | -89.98699 | 285 ft | 10 kts | 275° |
| 2026-05-04 20:29 | 35.04893 | -89.98740 | 284 ft | 8 kts | 182° |
| 2026-05-04 20:30 | 35.04771 | -89.98744 | 286 ft | 44 kts | 179° |
| 2026-05-04 20:30 | 35.04193 | -89.98732 | 291 ft | 119 kts | 179° |
| 2026-05-04 20:30 | 35.03146 | -89.98700 | 431 ft | 170 kts | 183° |
| 2026-05-04 20:30 | 35.01974 | -89.98657 | 1212 ft | 173 kts | 182° |
| 2026-05-04 20:31 | 35.00759 | -89.98611 | 1737 ft | 180 kts | 182° |
| 2026-05-04 20:31 | 34.99427 | -89.98549 | 1990 ft | 206 kts | 176° |
| 2026-05-04 20:31 | 34.97970 | -89.98007 | 2448 ft | 230 kts | 157° |
| 2026-05-04 20:31 | 34.96514 | -89.97025 | 2968 ft | 249 kts | 155° |
| 2026-05-04 20:32 | 34.94968 | -89.95971 | 3678 ft | 260 kts | 152° |
| 2026-05-04 20:32 | 34.93686 | -89.94442 | 4566 ft | 269 kts | 125° |
| 2026-05-04 20:32 | 34.93057 | -89.92244 | 5261 ft | 285 kts | 97° |
| 2026-05-04 20:32 | 34.93093 | -89.89841 | 6095 ft | 290 kts | 89° |
| 2026-05-04 20:33 | 34.93256 | -89.87389 | 6866 ft | 295 kts | 88° |
| 2026-05-04 20:33 | 34.93428 | -89.84895 | 7648 ft | 298 kts | 86° |
| 2026-05-04 20:33 | 34.93969 | -89.82450 | 8329 ft | 307 kts | 66° |
| 2026-05-04 20:33 | 34.94933 | -89.80110 | 9095 ft | 309 kts | 63° |
| 2026-05-04 20:34 | 34.95925 | -89.77808 | 9834 ft | 312 kts | 63° |
| 2026-05-04 20:34 | 34.96949 | -89.75436 | 10417 ft | 322 kts | 62° |
| 2026-05-04 20:34 | 34.98033 | -89.72923 | 10750 ft | 342 kts | 62° |
| 2026-05-04 20:34 | 34.99169 | -89.70290 | 11104 ft | 360 kts | 62° |
| 2026-05-04 20:35 | 35.00350 | -89.67550 | 11411 ft | 377 kts | 62° |
| 2026-05-04 20:35 | 35.01591 | -89.64668 | 11702 ft | 395 kts | 62° |
| 2026-05-04 20:35 | 35.02891 | -89.61648 | 12058 ft | 410 kts | 62° |
| 2026-05-04 20:35 | 35.04230 | -89.58533 | 12644 ft | 418 kts | 62° |
| 2026-05-04 20:36 | 35.05585 | -89.55378 | 13505 ft | 420 kts | 62° |
| 2026-05-04 20:36 | 35.06943 | -89.52212 | 14384 ft | 422 kts | 62° |
| 2026-05-04 20:36 | 35.08307 | -89.49031 | 15169 ft | 426 kts | 62° |
| 2026-05-04 20:36 | 35.09673 | -89.45841 | 15919 ft | 431 kts | 61° |
| 2026-05-04 20:37 | 35.11062 | -89.42597 | 16694 ft | 435 kts | 61° |
| 2026-05-04 20:37 | 35.12463 | -89.39319 | 17398 ft | 440 kts | 61° |
| 2026-05-04 20:37 | 35.13897 | -89.35962 | 18114 ft | 445 kts | 60° |
| 2026-05-04 20:37 | 35.15330 | -89.32604 | 18843 ft | 449 kts | 61° |
| 2026-05-04 20:38 | 35.16763 | -89.29243 | 19544 ft | 453 kts | 61° |
| 2026-05-04 20:38 | 35.18235 | -89.25785 | 20248 ft | 458 kts | 60° |
| 2026-05-04 20:38 | 35.19696 | -89.22350 | 20935 ft | 461 kts | 60° |
| 2026-05-04 20:38 | 35.21188 | -89.18841 | 21600 ft | 465 kts | 60° |
| 2026-05-04 20:39 | 35.22666 | -89.15358 | 22213 ft | 470 kts | 59° |
| 2026-05-04 20:39 | 35.24367 | -89.11981 | 22788 ft | 470 kts | 50° |
| 2026-05-04 20:39 | 35.26511 | -89.08941 | 23341 ft | 471 kts | 41° |
| 2026-05-04 20:39 | 35.28920 | -89.06197 | 23920 ft | 473 kts | 38° |
| 2026-05-04 20:40 | 35.31345 | -89.03513 | 24583 ft | 475 kts | 38° |
| 2026-05-04 20:40 | 35.33791 | -89.00804 | 25164 ft | 478 kts | 38° |
| 2026-05-04 20:40 | 35.36270 | -88.98055 | 25637 ft | 484 kts | 38° |
| 2026-05-04 20:40 | 35.38768 | -88.95280 | 26149 ft | 488 kts | 38° |
| 2026-05-04 20:41 | 35.41288 | -88.92476 | 26693 ft | 491 kts | 38° |
| 2026-05-04 20:41 | 35.43823 | -88.89652 | 27217 ft | 495 kts | 38° |
| 2026-05-04 20:41 | 35.46377 | -88.86804 | 27734 ft | 499 kts | 38° |
| 2026-05-04 20:41 | 35.48947 | -88.83934 | 28251 ft | 502 kts | 38° |
| 2026-05-04 20:42 | 35.51545 | -88.81031 | 28734 ft | 507 kts | 38° |
| 2026-05-04 20:42 | 35.54155 | -88.78110 | 29259 ft | 510 kts | 38° |
| 2026-05-04 20:42 | 35.56755 | -88.75198 | 29893 ft | 511 kts | 38° |
| 2026-05-04 20:42 | 35.59359 | -88.72277 | 30622 ft | 508 kts | 38° |
| 2026-05-04 20:43 | 35.61985 | -88.69328 | 31385 ft | 505 kts | 38° |
| 2026-05-04 20:43 | 35.64549 | -88.66447 | 32166 ft | 500 kts | 38° |
| 2026-05-04 20:43 | 35.67112 | -88.63565 | 32710 ft | 500 kts | 38° |
| 2026-05-04 20:43 | 35.69671 | -88.60688 | 32930 ft | 503 kts | 38° |
| 2026-05-04 20:44 | 35.74833 | -88.54871 | 32938 ft | 500 kts | 38° |
| 2026-05-04 20:44 | 35.79973 | -88.49068 | 32935 ft | 500 kts | 38° |
| 2026-05-04 20:45 | 35.85107 | -88.43262 | 32929 ft | 500 kts | 38° |
| 2026-05-04 20:45 | 35.90226 | -88.37463 | 32937 ft | 501 kts | 38° |
| 2026-05-04 20:46 | 35.95370 | -88.31623 | 32924 ft | 501 kts | 39° |
| 2026-05-04 20:46 | 36.00475 | -88.25817 | 32926 ft | 501 kts | 39° |
| 2026-05-04 20:47 | 36.05615 | -88.19961 | 32916 ft | 502 kts | 39° |
| 2026-05-04 20:47 | 36.10744 | -88.14106 | 32915 ft | 502 kts | 39° |
| 2026-05-04 20:48 | 36.15879 | -88.08234 | 32914 ft | 502 kts | 39° |
| 2026-05-04 20:48 | 36.20982 | -88.02387 | 32924 ft | 502 kts | 39° |
| 2026-05-04 20:49 | 36.26134 | -87.96473 | 32916 ft | 504 kts | 39° |
| 2026-05-04 20:49 | 36.31266 | -87.90571 | 32905 ft | 503 kts | 39° |
| 2026-05-04 20:50 | 36.36401 | -87.84654 | 32910 ft | 503 kts | 39° |
| 2026-05-04 20:50 | 36.41510 | -87.78755 | 32909 ft | 504 kts | 39° |
| 2026-05-04 20:51 | 36.46645 | -87.72817 | 32907 ft | 504 kts | 38° |
| 2026-05-04 20:51 | 36.51770 | -87.66878 | 32902 ft | 505 kts | 38° |